Time;durP1;ratioP1;P1;durP2;ratioP2;P2;SDS_P1;SDS_P2;PMS_P1;PMS_P2;Temp;Humidity;BMP_temperature;BMP_pressure;BME280_temperature;BME280_humidity;BME280_pressure;Samples;Min_cycle;Max_cycle;Signal;HPM_P1;HPM_P2
2022/10/03 00:01:30;;;;;;;3.53;2.10;;;19.90;67.00;;;;;;5095811;28;20074;-86
2022/10/03 00:04:19;;;;;;;3.47;2.03;;;19.80;66.50;;;;;;5077230;28;20024;-82
2022/10/03 00:06:47;;;;;;;3.60;2.38;;;19.60;67.00;;;;;;5077143;28;20050;-85
2022/10/03 00:09:33;;;;;;;4.07;2.10;;;19.40;67.40;;;;;;5094177;28;20024;-87
2022/10/03 00:12:15;;;;;;;4.18;2.15;;;19.60;67.50;;;;;;5076743;28;20024;-88
2022/10/03 00:15:07;;;;;;;4.30;2.28;;;20.00;66.40;;;;;;5111170;28;20475;-83
2022/10/03 00:18:11;;;;;;;3.60;2.20;;;20.20;66.00;;;;;;5076870;28;20024;-80
2022/10/03 00:21:06;;;;;;;5.10;2.38;;;20.00;66.00;;;;;;5035701;28;20131;-78
2022/10/03 00:23:56;;;;;;;5.32;2.40;;;19.90;66.30;;;;;;5052021;28;20063;-78
2022/10/03 00:26:33;;;;;;;4.07;2.40;;;20.20;66.00;;;;;;5052113;28;20029;-80
2022/10/03 00:29:32;;;;;;;3.53;2.03;;;20.40;65.30;;;;;;5052053;28;20049;-81
2022/10/03 00:32:22;;;;;;;4.72;2.38;;;20.50;64.70;;;;;;5052268;28;20029;-86
2022/10/03 00:35:00;;;;;;;4.00;2.30;;;20.40;64.80;;;;;;5052301;28;20051;-82
2022/10/03 00:37:42;;;;;;;4.10;2.10;;;20.40;64.70;;;;;;5051501;28;20029;-80
2022/10/03 00:40:47;;;;;;;7.63;2.30;;;20.30;64.60;;;;;;5052729;28;20029;-91
2022/10/03 00:43:30;;;;;;;3.53;2.20;;;20.10;64.80;;;;;;5052859;28;20037;-85
2022/10/03 00:46:02;;;;;;;4.85;2.83;;;19.90;65.60;;;;;;5052493;28;20562;-84
2022/10/03 00:49:02;;;;;;;6.20;2.60;;;20.10;65.10;;;;;;5052159;28;20037;-82
2022/10/03 00:51:43;;;;;;;4.18;2.40;;;20.20;64.60;;;;;;5072882;28;20130;-82
2022/10/03 00:54:32;;;;;;;;;;;20.20;64.70;;;;;;5094169;28;20051;-81
2022/10/03 00:57:13;;;;;;;3.72;2.30;;;20.00;64.80;;;;;;5073048;28;19908;-87
2022/10/03 00:59:47;;;;;;;4.43;2.40;;;20.20;64.30;;;;;;5093262;28;20051;-85
2022/10/03 01:02:30;;;;;;;4.25;2.42;;;20.00;64.80;;;;;;5066362;28;20020;-83
2022/10/03 01:05:30;;;;;;;6.68;2.60;;;19.80;65.50;;;;;;5055629;28;20032;-81
2022/10/03 01:08:05;;;;;;;4.70;2.50;;;19.90;65.20;;;;;;5068409;28;20379;-90
2022/10/03 01:10:48;;;;;;;4.97;3.25;;;19.90;64.70;;;;;;5077778;28;20028;-85
2022/10/03 01:13:31;;;;;;;4.88;2.70;;;20.10;64.50;;;;;;5055796;28;20025;-82
2022/10/03 01:16:26;;;;;;;4.75;2.60;;;20.20;64.40;;;;;;5073796;28;20067;-83
2022/10/03 01:18:51;;;;;;;5.97;2.63;;;20.00;64.60;;;;;;5072777;28;20025;-79
2022/10/03 01:21:24;;;;;;;4.60;2.78;;;20.00;64.50;;;;;;5055713;28;20025;-83
2022/10/03 01:23:57;;;;;;;4.43;2.40;;;20.00;64.50;;;;;;5088995;28;20390;-85
2022/10/03 01:26:55;;;;;;;4.60;2.60;;;20.10;64.00;;;;;;5055525;28;20036;-81
2022/10/03 01:32:43;;;;;;;7.50;3.00;;;20.20;63.30;;;;;;5073986;28;20040;-81
2022/10/03 01:35:09;;;;;;;5.05;2.70;;;20.40;63.30;;;;;;5088340;28;20044;-83
2022/10/03 01:38:00;;;;;;;4.50;2.60;;;20.10;63.60;;;;;;5073552;28;20051;-82
2022/10/03 01:40:34;;;;;;;5.43;2.75;;;20.00;64.10;;;;;;5073193;28;20103;-88
2022/10/03 01:43:38;;;;;;;5.07;2.90;;;19.90;64.30;;;;;;5089545;28;20020;-84
2022/10/03 01:46:07;;;;;;;4.10;2.80;;;19.70;64.40;;;;;;5055468;28;20484;-82
2022/10/03 01:48:45;;;;;;;7.13;2.78;;;19.80;64.70;;;;;;5056204;28;20107;-82
2022/10/03 01:51:18;;;;;;;4.80;2.78;;;19.90;64.20;;;;;;5058689;28;20080;-83
2022/10/03 01:54:07;;;;;;;6.05;3.00;;;20.00;64.20;;;;;;5059496;28;20020;-83
2022/10/03 01:56:59;;;;;;;4.30;2.90;;;19.90;64.40;;;;;;5059507;28;20127;-84
2022/10/03 01:59:37;;;;;;;3.97;2.58;;;20.00;63.70;;;;;;5059983;28;20265;-87
2022/10/03 02:02:44;;;;;;;4.50;3.13;;;19.90;64.30;;;;;;5059899;28;20056;-83
2022/10/03 02:05:34;;;;;;;5.28;2.90;;;19.50;64.80;;;;;;4976397;28;20038;-83
2022/10/03 02:08:42;;;;;;;5.13;2.90;;;19.40;65.10;;;;;;4976340;28;20034;-85
2022/10/03 02:11:09;;;;;;;4.18;2.95;;;19.40;65.60;;;;;;4976660;28;20026;-89
2022/10/03 02:13:47;;;;;;;5.20;3.10;;;19.40;65.00;;;;;;4976208;28;20514;-83
2022/10/03 02:16:31;;;;;;;4.75;2.80;;;19.60;65.50;;;;;;4976337;28;20125;-91
2022/10/03 02:19:47;;;;;;;6.00;3.90;;;19.80;64.30;;;;;;4976342;28;20058;-85
2022/10/03 02:22:27;;;;;;;6.15;2.80;;;19.90;63.90;;;;;;4897244;29;20040;-88
2022/10/03 02:25:20;;;;;;;5.80;3.72;;;19.80;64.10;;;;;;4881544;29;20041;-93
2022/10/03 02:28:03;;;;;;;5.03;3.08;;;19.80;64.20;;;;;;4897084;29;20127;-85
2022/10/03 02:30:48;;;;;;;5.18;3.22;;;19.50;64.70;;;;;;4862711;29;20041;-89
2022/10/03 02:33:43;;;;;;;5.45;2.97;;;19.40;64.80;;;;;;4878026;29;20093;-87
2022/10/03 02:36:26;;;;;;;6.15;3.00;;;19.50;64.70;;;;;;4862825;29;20466;-84
2022/10/03 02:38:55;;;;;;;5.13;3.35;;;19.40;65.40;;;;;;4877893;29;20045;-84
2022/10/03 02:41:52;;;;;;;6.03;3.35;;;19.40;65.20;;;;;;4871287;29;20120;-82
2022/10/03 02:44:39;;;;;;;5.45;3.47;;;19.50;65.30;;;;;;4880970;29;20101;-90
2022/10/03 02:47:44;;;;;;;5.32;3.13;;;19.60;64.40;;;;;;4909750;29;20044;-88
2022/10/03 02:50:46;;;;;;;5.82;3.20;;;19.60;64.80;;;;;;4918726;29;20484;-84
2022/10/03 02:53:17;;;;;;;5.97;3.25;;;19.60;65.10;;;;;;4916648;29;20043;-90
2022/10/03 02:56:20;;;;;;;5.70;3.67;;;19.60;64.40;;;;;;4921544;29;20112;-84
2022/10/03 02:59:01;;;;;;;5.22;2.92;;;19.50;64.70;;;;;;4992979;28;20487;-82
2022/10/03 03:01:32;;;;;;;5.57;3.00;;;19.70;64.70;;;;;;5061054;28;20040;-82
2022/10/03 03:04:19;;;;;;;5.50;3.33;;;19.90;64.20;;;;;;5071594;28;20032;-82
2022/10/03 03:07:07;;;;;;;5.22;3.67;;;19.90;63.80;;;;;;5070273;28;20064;-85
2022/10/03 03:09:57;;;;;;;6.72;3.47;;;19.60;64.70;;;;;;5054368;28;20483;-86
2022/10/03 03:12:46;;;;;;;;;;;19.70;64.40;;;;;;5072077;28;20111;-84
2022/10/03 03:15:30;;;;;;;6.82;3.42;;;19.70;64.50;;;;;;5051564;28;19909;-84
2022/10/03 03:18:10;;;;;;;5.60;3.47;;;19.60;65.00;;;;;;5054822;28;20439;-83
2022/10/03 03:21:03;;;;;;;7.30;3.70;;;19.60;64.60;;;;;;5037184;28;20021;-88
2022/10/03 03:23:35;;;;;;;6.05;3.22;;;19.60;64.80;;;;;;5054473;28;20027;-85
2022/10/03 03:26:19;;;;;;;6.90;4.10;;;19.60;64.80;;;;;;5054060;28;20025;-83
2022/10/03 03:28:54;;;;;;;7.68;4.35;;;19.70;64.70;;;;;;5064884;28;20154;-85
2022/10/03 03:31:44;;;;;;;6.28;3.90;;;19.70;64.50;;;;;;5079261;28;20073;-85
2022/10/03 03:34:20;;;;;;;7.07;3.67;;;19.80;63.90;;;;;;5060137;28;20056;-92
2022/10/03 03:37:19;;;;;;;6.25;4.05;;;19.70;64.50;;;;;;5076099;28;20020;-83
2022/10/03 03:40:03;;;;;;;6.15;3.97;;;19.60;64.30;;;;;;5075133;28;20032;-86
2022/10/03 03:42:36;;;;;;;6.72;3.72;;;19.50;65.10;;;;;;5087930;28;20421;-84
2022/10/03 03:45:18;;;;;;;6.53;3.72;;;19.70;64.40;;;;;;5095550;28;20054;-82
2022/10/03 03:47:52;;;;;;;5.78;4.20;;;19.70;64.20;;;;;;5061774;28;20021;-85
2022/10/03 03:50:56;;;;;;;6.35;3.63;;;19.40;64.40;;;;;;5095072;28;20408;-93
2022/10/03 03:53:42;;;;;;;13.23;4.43;;;19.40;64.80;;;;;;5058865;28;20024;-86
2022/10/03 03:56:10;;;;;;;6.03;3.53;;;19.50;64.60;;;;;;5073989;28;20028;-86
2022/10/03 03:58:55;;;;;;;8.98;4.10;;;19.60;64.80;;;;;;5079464;28;20028;-88
2022/10/03 04:01:32;;;;;;;9.93;4.13;;;19.60;64.10;;;;;;5092917;28;20027;-87
2022/10/03 04:04:25;;;;;;;6.93;3.72;;;19.60;64.70;;;;;;5111103;28;20024;-93
2022/10/03 04:07:26;;;;;;;7.15;4.20;;;19.40;64.80;;;;;;5074745;28;20109;-86
2022/10/03 04:10:06;;;;;;;6.28;4.07;;;19.50;64.60;;;;;;5035617;28;20052;-86
2022/10/03 04:13:00;;;;;;;6.43;4.03;;;19.50;64.10;;;;;;5034424;28;20029;-85
2022/10/03 04:15:44;;;;;;;7.07;4.75;;;19.60;64.30;;;;;;5036628;28;20098;-83
2022/10/03 04:21:49;;;;;;;6.57;3.90;;;19.90;63.30;;;;;;5052733;28;20553;-84
2022/10/03 04:24:35;;;;;;;8.50;4.60;;;19.80;63.70;;;;;;5035688;28;20036;-90
2022/10/03 04:27:21;;;;;;;8.25;4.38;;;19.80;63.80;;;;;;5052238;28;20037;-83
2022/10/03 04:30:06;;;;;;;8.35;4.53;;;19.80;64.10;;;;;;4992472;28;20073;-84
2022/10/03 04:32:56;;;;;;;7.45;4.47;;;19.90;63.40;;;;;;4992130;28;20038;-83
2022/10/03 04:35:40;;;;;;;7.07;4.53;;;19.90;63.40;;;;;;4982743;28;20066;-82
2022/10/03 04:38:13;;;;;;;6.57;3.70;;;19.70;63.50;;;;;;4992775;28;20018;-81
2022/10/03 04:41:01;;;;;;;8.13;4.45;;;19.80;63.60;;;;;;5007101;28;20073;-81
2022/10/03 04:43:59;;;;;;;6.82;4.70;;;19.90;63.50;;;;;;4992908;28;20034;-81
2022/10/03 04:46:49;;;;;;;7.90;5.10;;;19.70;63.90;;;;;;5002943;28;20501;-84
2022/10/03 04:49:31;;;;;;;7.40;4.30;;;19.60;64.10;;;;;;5040254;28;20041;-82
2022/10/03 04:52:18;;;;;;;7.78;4.40;;;19.60;64.00;;;;;;5015021;28;20034;-85
2022/10/03 04:55:14;;;;;;;9.07;4.63;;;19.50;63.60;;;;;;5033597;28;20128;-85
2022/10/03 04:58:13;;;;;;;6.90;4.60;;;19.30;64.60;;;;;;5015273;28;20475;-90
2022/10/03 05:00:56;;;;;;;8.05;4.50;;;19.30;65.10;;;;;;5031324;28;20067;-81
2022/10/03 05:03:33;;;;;;;5.75;4.43;;;19.30;64.90;;;;;;5015218;28;20017;-82
2022/10/03 05:06:25;;;;;;;8.75;4.20;;;19.30;64.90;;;;;;5053198;28;20021;-85
2022/10/03 05:09:26;;;;;;;6.95;4.38;;;19.30;64.70;;;;;;5085897;28;20425;-89
2022/10/03 05:12:10;;;;;;;7.15;4.40;;;19.30;64.70;;;;;;5015463;28;20071;-86
2022/10/03 05:14:57;;;;;;;6.00;4.30;;;19.50;64.70;;;;;;5032160;28;20561;-81
2022/10/03 05:17:44;;;;;;;6.88;4.45;;;19.50;64.40;;;;;;5031850;28;20033;-85
2022/10/03 05:20:26;;;;;;;5.47;4.22;;;19.50;64.00;;;;;;5031816;28;20029;-91
2022/10/03 05:23:06;;;;;;;7.22;4.65;;;19.70;63.30;;;;;;5041060;28;20071;-90
2022/10/03 05:25:52;;;;;;;7.72;4.93;;;19.60;63.30;;;;;;5033054;28;20029;-85
2022/10/03 05:29:00;;;;;;;6.97;4.30;;;19.60;63.80;;;;;;5024621;28;20042;-87
2022/10/03 05:31:37;;;;;;;8.15;4.68;;;19.50;63.90;;;;;;5018205;28;20073;-91
2022/10/03 05:34:32;;;;;;;9.05;4.63;;;19.50;63.60;;;;;;5012484;28;20030;-83
2022/10/03 05:37:25;;;;;;;9.75;4.75;;;19.50;64.30;;;;;;5011957;28;20033;-86
2022/10/03 05:40:23;;;;;;;7.53;5.38;;;19.40;64.60;;;;;;5011857;28;20026;-84
2022/10/03 05:42:51;;;;;;;7.63;4.75;;;19.40;64.00;;;;;;5011885;28;20062;-89
2022/10/03 05:45:35;;;;;;;9.88;5.03;;;19.40;63.50;;;;;;4995579;28;20034;-82
2022/10/03 05:48:10;;;;;;;8.27;4.30;;;19.40;63.60;;;;;;5040665;28;20033;-85
2022/10/03 05:50:56;;;;;;;8.40;4.53;;;19.20;64.10;;;;;;5061795;28;20020;-90
2022/10/03 05:54:03;;;;;;;8.02;4.32;;;19.20;64.20;;;;;;5061203;28;20511;-90
2022/10/03 05:56:52;;;;;;;10.40;5.00;;;19.10;64.60;;;;;;5060420;28;20487;-89
2022/10/03 05:59:29;;;;;;;6.28;3.90;;;18.80;64.80;;;;;;5031880;28;20045;-83
2022/10/03 06:02:27;;;;;;;7.72;4.10;;;18.90;64.50;;;;;;5054720;28;20044;-86
2022/10/03 06:05:17;;;;;;;7.05;3.80;;;18.70;64.50;;;;;;5029902;28;20033;-85
2022/10/03 06:08:04;;;;;;;9.63;4.00;;;18.60;64.60;;;;;;5068480;28;20020;-85
2022/10/03 06:10:36;;;;;;;5.28;3.70;;;18.40;65.40;;;;;;5062281;28;20029;-86
2022/10/03 06:13:22;;;;;;;8.35;4.07;;;18.70;64.70;;;;;;5067053;28;20025;-79
2022/10/03 06:15:53;;;;;;;7.75;4.47;;;18.90;64.30;;;;;;5061677;28;20041;-84
2022/10/03 06:18:41;;;;;;;7.72;3.78;;;18.90;64.10;;;;;;5053146;28;20021;-89
2022/10/03 06:21:19;;;;;;;7.15;4.05;;;18.50;64.60;;;;;;5052263;28;20029;-85
2022/10/03 06:24:22;;;;;;;8.23;3.58;;;18.30;65.40;;;;;;5053411;28;20080;-88
2022/10/03 06:27:12;;;;;;;6.35;3.92;;;18.30;65.70;;;;;;5032505;28;20432;-85
2022/10/03 06:29:58;;;;;;;7.18;3.60;;;18.30;65.60;;;;;;5043424;28;20518;-85
2022/10/03 06:32:57;;;;;;;8.35;3.63;;;18.40;65.30;;;;;;5053648;28;20442;-87
2022/10/03 06:35:51;;;;;;;6.23;3.10;;;18.40;65.20;;;;;;5053512;28;20124;-87
2022/10/03 06:38:47;;;;;;;6.25;3.10;;;18.60;65.00;;;;;;5067079;28;20031;-85
2022/10/03 06:41:51;;;;;;;7.00;3.13;;;18.70;64.60;;;;;;5076552;28;20028;-89
2022/10/03 06:44:55;;;;;;;6.68;3.42;;;18.70;65.00;;;;;;5075416;28;20020;-86
2022/10/03 06:47:42;;;;;;;9.60;3.10;;;18.90;64.50;;;;;;5076449;28;20074;-90
2022/10/03 06:50:17;;;;;;;10.35;3.22;;;19.10;63.70;;;;;;5076817;28;20040;-94
2022/10/03 06:52:59;;;;;;;5.80;3.10;;;19.50;63.10;;;;;;5076573;28;20078;-87
2022/10/03 06:56:05;;;;;;;6.97;3.17;;;19.80;62.50;;;;;;5076201;28;20028;-92
2022/10/03 06:58:43;;;;;;;7.38;3.35;;;19.70;61.90;;;;;;5075352;28;20024;-88
2022/10/03 07:01:11;;;;;;;8.07;3.42;;;19.30;62.90;;;;;;5076366;28;20016;-89
2022/10/03 07:04:01;;;;;;;6.15;3.15;;;19.00;63.10;;;;;;5076220;28;20021;-87
2022/10/03 07:06:48;;;;;;;6.57;3.15;;;19.00;63.10;;;;;;5076260;28;20021;-94
2022/10/03 07:09:38;;;;;;;8.55;3.08;;;19.10;63.10;;;;;;5075316;28;20124;-89
2022/10/03 07:12:22;;;;;;;7.72;3.50;;;19.20;62.70;;;;;;5069913;28;20027;-84
2022/10/03 07:15:22;;;;;;;10.02;3.35;;;19.30;62.50;;;;;;5075524;28;20538;-84
2022/10/03 07:17:55;;;;;;;8.38;3.15;;;19.30;62.90;;;;;;5075038;28;20029;-92
2022/10/03 07:20:58;;;;;;;7.43;3.13;;;19.50;63.00;;;;;;5075453;28;20038;-91
2022/10/03 07:23:47;;;;;;;7.65;2.80;;;19.60;61.70;;;;;;5075792;28;20028;-86
2022/10/03 07:26:38;;;;;;;7.67;2.93;;;19.30;62.70;;;;;;5075327;28;20025;-90
2022/10/03 07:29:20;;;;;;;;;;;19.50;62.40;;;;;;5074958;28;20491;-88
2022/10/03 07:31:56;;;;;;;8.88;2.90;;;19.60;62.20;;;;;;5068269;28;19904;-83
2022/10/03 07:34:44;;;;;;;7.53;2.92;;;19.30;62.50;;;;;;5075902;28;20016;-89
2022/10/03 07:40:38;;;;;;;11.98;2.75;;;19.50;62.90;;;;;;5074166;28;20035;-88
2022/10/03 07:43:44;;;;;;;6.10;2.70;;;19.60;61.90;;;;;;5073992;28;20021;-84
2022/10/03 07:46:52;;;;;;;7.75;2.72;;;19.70;61.50;;;;;;5073917;28;20128;-85
2022/10/03 07:49:58;;;;;;;6.35;2.80;;;19.90;61.00;;;;;;5074100;28;20089;-88
2022/10/03 07:53:01;;;;;;;6.72;2.95;;;20.40;62.00;;;;;;5057853;28;20116;-86
2022/10/03 07:55:38;;;;;;;9.20;2.67;;;20.80;60.60;;;;;;5074310;28;20040;-94
2022/10/03 07:58:17;;;;;;;8.50;2.95;;;20.90;59.50;;;;;;5073812;28;20458;-86
2022/10/03 08:01:14;;;;;;;5.95;2.65;;;20.70;59.40;;;;;;5073182;28;20035;-84
2022/10/03 08:03:55;;;;;;;10.20;2.88;;;20.70;60.50;;;;;;5054598;28;20028;-89
2022/10/03 08:06:37;;;;;;;;;;;20.10;59.40;;;;;;5066504;28;20433;-85
2022/10/03 08:09:12;;;;;;;8.73;2.72;;;19.70;61.60;;;;;;5057687;28;20347;-93
2022/10/03 08:11:52;;;;;;;5.90;2.70;;;20.20;60.80;;;;;;5071565;28;20025;-85
2022/10/03 08:14:24;;;;;;;7.70;3.05;;;20.50;59.80;;;;;;5067848;28;20387;-92
2022/10/03 08:16:59;;;;;;;8.00;2.75;;;20.70;60.00;;;;;;5070464;28;20032;-85
2022/10/03 08:19:36;;;;;;;8.45;2.30;;;20.70;59.30;;;;;;5069966;28;20028;-81
2022/10/03 08:22:30;;;;;;;9.02;2.72;;;20.50;59.60;;;;;;5074072;28;20017;-90
2022/10/03 08:25:39;;;;;;;9.40;2.55;;;20.90;58.90;;;;;;5074644;28;20083;-91
2022/10/03 08:28:29;;;;;;;5.30;2.30;;;21.10;57.40;;;;;;5056502;28;20027;-84
2022/10/03 08:31:17;;;;;;;6.00;2.40;;;20.50;57.80;;;;;;5073203;28;20105;-84
2022/10/03 08:34:20;;;;;;;7.38;2.50;;;20.30;59.60;;;;;;5072877;28;20186;-86
2022/10/03 08:37:16;;;;;;;6.65;2.80;;;20.00;59.00;;;;;;5073158;28;20029;-94
2022/10/03 08:40:22;;;;;;;4.85;2.08;;;19.90;59.30;;;;;;5073453;28;20105;-86
2022/10/03 08:43:18;;;;;;;9.45;2.70;;;20.20;59.50;;;;;;5073136;28;20024;-84
2022/10/03 08:46:08;;;;;;;5.97;2.40;;;20.50;57.60;;;;;;5073463;28;20085;-82
2022/10/03 08:48:44;;;;;;;6.18;2.47;;;20.60;58.30;;;;;;5069995;28;20403;-88
2022/10/03 08:51:39;;;;;;;6.05;2.35;;;20.70;58.60;;;;;;5056192;28;20028;-83
2022/10/03 08:54:23;;;;;;;6.75;2.58;;;20.90;57.10;;;;;;5072658;28;20040;-82
2022/10/03 08:57:24;;;;;;;10.50;2.65;;;20.90;57.10;;;;;;5072446;28;20115;-86
2022/10/03 09:00:07;;;;;;;6.80;2.67;;;20.90;57.70;;;;;;4980139;28;20042;-87
2022/10/03 09:03:10;;;;;;;8.55;2.70;;;20.60;58.40;;;;;;5028705;28;20033;-88
2022/10/03 09:06:00;;;;;;;6.25;2.90;;;21.00;58.10;;;;;;4979250;28;20048;-86
2022/10/03 09:09:03;;;;;;;6.22;2.50;;;21.20;57.50;;;;;;5021533;28;20104;-89
2022/10/03 09:11:55;;;;;;;10.52;2.40;;;20.60;58.00;;;;;;4981558;28;20031;-88
2022/10/03 09:14:50;;;;;;;7.57;2.60;;;20.30;58.40;;;;;;5012282;28;20057;-87
2022/10/03 09:17:34;;;;;;;7.10;2.65;;;20.30;58.60;;;;;;5012579;28;20461;-84
2022/10/03 09:20:38;;;;;;;13.77;2.80;;;20.20;59.30;;;;;;5011600;28;20376;-85
2022/10/03 09:23:33;;;;;;;6.22;2.70;;;20.60;58.00;;;;;;4978501;28;20070;-86
2022/10/03 09:26:35;;;;;;;10.13;4.38;;;20.90;58.20;;;;;;5008415;28;20023;-81
2022/10/03 09:29:22;;;;;;;7.70;3.80;;;21.30;58.10;;;;;;5022817;28;20124;-89
2022/10/03 09:32:22;;;;;;;8.52;2.78;;;21.30;57.10;;;;;;4996001;28;20115;-89
2022/10/03 09:35:09;;;;;;;12.23;2.72;;;21.40;57.30;;;;;;4992218;28;20073;-88
2022/10/03 09:37:53;;;;;;;5.18;2.42;;;21.80;55.40;;;;;;5072694;28;20119;-86
2022/10/03 09:40:38;;;;;;;6.60;2.40;;;21.70;56.10;;;;;;5073278;28;20418;-90
2022/10/03 09:43:28;;;;;;;6.97;2.40;;;21.60;55.70;;;;;;5072356;28;20097;-84
2022/10/03 09:46:08;;;;;;;6.45;2.65;;;21.40;55.90;;;;;;5073519;28;20033;-88
2022/10/03 09:48:40;;;;;;;;;;;21.70;56.70;;;;;;5072757;28;20035;-87
2022/10/03 09:51:40;;;;;;;7.43;2.55;;;21.70;56.00;;;;;;5071182;28;19911;-82
2022/10/03 09:54:21;;;;;;;4.33;2.77;;;21.50;55.80;;;;;;5073341;28;20052;-93
2022/10/03 09:57:06;;;;;;;6.68;2.53;;;21.60;56.40;;;;;;5055111;28;20052;-87
2022/10/03 09:59:38;;;;;;;7.55;2.83;;;21.70;57.60;;;;;;5072742;28;20563;-91
2022/10/03 10:02:34;;;;;;;6.45;2.35;;;21.80;56.30;;;;;;5072029;28;20086;-89
2022/10/03 10:05:21;;;;;;;6.55;3.10;;;22.00;55.30;;;;;;5071977;28;20025;-89
2022/10/03 10:08:27;;;;;;;7.25;2.80;;;21.70;54.00;;;;;;5071797;28;20112;-87
2022/10/03 10:11:13;;;;;;;6.57;2.85;;;21.90;54.70;;;;;;5005603;28;20046;-84
2022/10/03 10:14:15;;;;;;;6.20;2.42;;;21.90;54.80;;;;;;5017782;28;20030;-86
2022/10/03 10:17:02;;;;;;;4.47;2.20;;;21.70;55.10;;;;;;5012396;28;20034;-88
2022/10/03 10:20:08;;;;;;;6.00;1.95;;;21.60;55.50;;;;;;4996686;28;20030;-87
2022/10/03 10:23:11;;;;;;;5.47;2.40;;;21.70;54.30;;;;;;5011954;28;20022;-82
2022/10/03 10:26:08;;;;;;;6.88;2.97;;;22.20;54.90;;;;;;4980313;28;20030;-87
2022/10/03 10:28:58;;;;;;;4.60;2.72;;;22.40;54.20;;;;;;4997623;28;20057;-85
2022/10/03 10:31:51;;;;;;;5.97;2.42;;;22.10;54.80;;;;;;5031484;28;20034;-84
2022/10/03 10:34:37;;;;;;;6.68;2.70;;;21.80;55.10;;;;;;4976031;28;20039;-81
2022/10/03 10:37:24;;;;;;;4.85;2.30;;;21.50;55.10;;;;;;4960209;28;20023;-82
2022/10/03 10:39:55;;;;;;;5.18;2.25;;;20.90;56.60;;;;;;4959697;28;20093;-85
2022/10/03 10:42:21;;;;;;;4.30;2.08;;;21.20;56.70;;;;;;4959149;28;20195;-85
2022/10/03 10:45:06;;;;;;;5.13;2.20;;;21.50;56.20;;;;;;4957086;28;20038;-91
2022/10/03 10:47:57;;;;;;;5.15;2.17;;;21.50;55.60;;;;;;4983819;28;20042;-82
2022/10/03 10:50:43;;;;;;;5.57;2.60;;;21.10;56.10;;;;;;4997571;28;20576;-87
2022/10/03 10:53:36;;;;;;;5.45;2.50;;;21.10;54.70;;;;;;4997961;28;20074;-92
2022/10/03 10:56:41;;;;;;;7.03;2.47;;;20.60;56.50;;;;;;4992413;28;20026;-93
2022/10/03 10:59:28;;;;;;;4.97;2.40;;;20.70;56.80;;;;;;4993028;28;20029;-87
2022/10/03 11:01:56;;;;;;;6.05;2.45;;;21.00;55.80;;;;;;4998087;28;20022;-82
2022/10/03 11:04:57;;;;;;;6.05;2.80;;;21.00;55.70;;;;;;5014284;28;20127;-89
2022/10/03 11:08:05;;;;;;;7.57;3.50;;;21.20;55.90;;;;;;4997980;28;20121;-92
2022/10/03 11:10:35;;;;;;;11.63;2.60;;;21.50;55.20;;;;;;5006766;28;20041;-84
2022/10/03 11:13:25;;;;;;;9.40;3.42;;;21.40;56.20;;;;;;5038249;28;20025;-84
2022/10/03 11:16:15;;;;;;;5.68;2.97;;;21.40;56.60;;;;;;5038417;28;20029;-85
2022/10/03 11:19:01;;;;;;;6.65;2.30;;;21.40;56.50;;;;;;5033624;28;20044;-89
2022/10/03 11:22:04;;;;;;;4.20;2.13;;;21.00;56.90;;;;;;5017270;28;20076;-79
2022/10/03 11:24:54;;;;;;;5.93;2.63;;;21.00;57.50;;;;;;5017468;28;20137;-91
2022/10/03 11:27:54;;;;;;;5.32;2.22;;;21.40;57.70;;;;;;5018021;28;20032;-85
2022/10/03 11:30:41;;;;;;;5.63;2.00;;;21.90;55.80;;;;;;5017203;28;20048;-86
2022/10/03 11:33:22;;;;;;;4.20;1.88;;;22.20;55.40;;;;;;5018065;28;20354;-86
2022/10/03 11:36:04;;;;;;;3.55;1.80;;;21.80;55.70;;;;;;5016758;28;20147;-88
2022/10/03 11:38:50;;;;;;;3.85;2.25;;;20.90;59.00;;;;;;5017265;28;20416;-88
2022/10/03 11:41:19;;;;;;;4.22;2.30;;;20.90;60.30;;;;;;5033301;28;20131;-92
2022/10/03 11:44:12;;;;;;;4.72;2.30;;;21.10;59.90;;;;;;5033940;28;20532;-88
2022/10/03 11:47:00;;;;;;;5.45;2.10;;;21.00;61.90;;;;;;5016734;28;20092;-85
2022/10/03 11:49:59;;;;;;;3.38;1.90;;;20.90;60.30;;;;;;5016528;28;20041;-87
2022/10/03 11:52:52;;;;;;;5.10;2.65;;;20.70;60.60;;;;;;5016906;28;20119;-88
2022/10/03 11:55:32;;;;;;;5.88;2.30;;;21.20;61.30;;;;;;5023217;28;20037;-88
2022/10/03 11:58:37;;;;;;;4.72;2.08;;;21.20;60.80;;;;;;5037482;28;20021;-84
2022/10/03 12:01:21;;;;;;;6.65;2.33;;;21.10;60.40;;;;;;5007568;28;20379;-91
2022/10/03 12:04:02;;;;;;;4.47;2.08;;;21.20;59.80;;;;;;5013257;28;20074;-82
2022/10/03 12:09:53;;;;;;;3.60;2.03;;;21.90;58.30;;;;;;5015481;28;20096;-87
2022/10/03 12:12:42;;;;;;;6.68;2.40;;;21.60;57.50;;;;;;4997211;28;20033;-86
2022/10/03 12:15:25;;;;;;;4.97;2.00;;;21.10;57.30;;;;;;4996040;28;20034;-85
2022/10/03 12:18:06;;;;;;;6.25;2.40;;;20.70;58.20;;;;;;4997054;28;20169;-87
2022/10/03 12:20:35;;;;;;;3.42;1.80;;;20.60;58.50;;;;;;4995526;28;20231;-86
2022/10/03 12:23:06;;;;;;;5.90;1.80;;;20.50;59.10;;;;;;4996829;28;20045;-81
2022/10/03 12:25:35;;;;;;;3.13;1.58;;;20.70;57.60;;;;;;4994926;28;20034;-87
2022/10/03 12:28:11;;;;;;;4.88;2.08;;;20.60;57.90;;;;;;5012958;28;20441;-93
2022/10/03 12:30:47;;;;;;;3.92;1.75;;;20.80;58.00;;;;;;4995101;28;20050;-89
2022/10/03 12:33:26;;;;;;;3.45;1.92;;;21.10;57.20;;;;;;4996418;28;20045;-85
2022/10/03 12:36:27;;;;;;;5.55;1.98;;;21.30;57.30;;;;;;5030451;28;20032;-84
2022/10/03 12:39:12;;;;;;;5.13;2.00;;;21.60;56.60;;;;;;5054007;28;20021;-90
2022/10/03 12:42:08;;;;;;;3.58;1.85;;;21.60;56.60;;;;;;5036694;28;20048;-90
2022/10/03 12:44:56;;;;;;;3.55;1.80;;;21.50;56.50;;;;;;5036883;28;20021;-92
2022/10/03 12:47:47;;;;;;;6.63;1.98;;;22.00;56.80;;;;;;5035789;28;20039;-90
2022/10/03 12:50:32;;;;;;;4.18;1.80;;;21.70;55.80;;;;;;5036851;28;20048;-87
2022/10/03 12:53:16;;;;;;;4.53;1.80;;;21.60;55.70;;;;;;5036793;28;20036;-90
2022/10/03 12:56:03;;;;;;;3.83;1.60;;;21.40;56.50;;;;;;5055220;28;20036;-86
2022/10/03 12:59:08;;;;;;;4.80;1.60;;;21.20;54.30;;;;;;5036600;28;20025;-82
2022/10/03 13:01:55;;;;;;;3.22;1.55;;;20.80;54.50;;;;;;5036201;28;20025;-85
2022/10/03 13:04:26;;;;;;;4.78;1.65;;;20.90;55.70;;;;;;5035959;28;20497;-90
2022/10/03 13:06:57;;;;;;;4.72;1.73;;;21.30;54.20;;;;;;5054627;28;20047;-91
2022/10/03 13:10:11;;;;;;;4.95;1.85;;;21.50;54.00;;;;;;5035574;28;20029;-85
2022/10/03 13:12:54;;;;;;;3.92;1.67;;;21.60;54.50;;;;;;5015180;28;20025;-85
2022/10/03 13:16:02;;;;;;;5.03;1.90;;;21.40;53.50;;;;;;5031658;28;20072;-86
2022/10/03 13:18:37;;;;;;;5.05;1.80;;;21.00;55.40;;;;;;5031899;28;20033;-91
2022/10/03 13:21:15;;;;;;;4.18;1.83;;;21.10;55.70;;;;;;5031523;28;20029;-87
2022/10/03 13:23:57;;;;;;;4.72;1.70;;;21.20;55.60;;;;;;5031612;28;20051;-92
2022/10/03 13:26:46;;;;;;;5.28;2.40;;;21.10;54.70;;;;;;5032378;28;20120;-88
2022/10/03 13:29:24;;;;;;;7.35;2.88;;;21.00;55.90;;;;;;5031544;28;20405;-89
2022/10/03 13:32:28;;;;;;;11.95;4.75;;;21.40;55.40;;;;;;5032212;28;20022;-86
2022/10/03 13:35:57;;;;;;;5.88;2.50;;;21.40;54.90;;;;;;4918809;29;20047;-91
2022/10/03 13:38:08;;;;;;;7.45;2.00;;;20.80;55.50;;;;;;4934387;29;20485;-83
2022/10/03 13:40:40;;;;;;;3.45;1.80;;;20.50;56.80;;;;;;4934458;29;20042;-85
2022/10/03 13:43:14;;;;;;;4.85;2.33;;;20.60;56.90;;;;;;4934420;29;20087;-89
2022/10/03 13:45:43;;;;;;;6.10;2.60;;;20.40;56.60;;;;;;4940495;29;20035;-86
2022/10/03 13:48:17;;;;;;;4.68;2.15;;;20.70;56.70;;;;;;4958085;29;20035;-90
2022/10/03 13:51:19;;;;;;;6.20;2.80;;;20.60;56.20;;;;;;4957570;29;20035;-83
2022/10/03 13:54:18;;;;;;;5.30;2.50;;;21.00;56.30;;;;;;4957265;29;20043;-81
2022/10/03 13:56:54;;;;;;;3.95;2.63;;;21.20;55.70;;;;;;4957229;29;20027;-82
2022/10/03 13:59:40;;;;;;;5.45;2.00;;;21.50;55.50;;;;;;4957413;29;20126;-86
2022/10/03 14:02:08;;;;;;;9.80;2.50;;;21.50;55.90;;;;;;4957451;29;20023;-87
2022/10/03 14:04:43;;;;;;;4.68;2.08;;;21.50;55.20;;;;;;4957502;29;20035;-87
2022/10/03 14:07:44;;;;;;;4.18;2.10;;;21.50;55.00;;;;;;4942115;29;20039;-83
2022/10/03 14:10:29;;;;;;;5.35;1.90;;;21.40;54.80;;;;;;4966341;28;20039;-83
2022/10/03 14:13:28;;;;;;;3.33;1.80;;;21.10;55.10;;;;;;5039154;28;20556;-93
2022/10/03 14:16:26;;;;;;;4.05;2.00;;;20.70;55.40;;;;;;5056992;28;20161;-83
2022/10/03 14:18:54;;;;;;;4.10;2.05;;;20.90;55.70;;;;;;5073890;28;20037;-89
2022/10/03 14:21:20;;;;;;;5.60;2.40;;;21.30;55.70;;;;;;5040010;28;20034;-85
2022/10/03 14:24:02;;;;;;;5.47;2.70;;;21.40;56.20;;;;;;5039683;28;20029;-84
2022/10/03 14:26:51;;;;;;;4.68;2.20;;;21.50;55.50;;;;;;5039298;28;20049;-90
2022/10/03 14:29:46;;;;;;;6.18;2.38;;;21.40;56.00;;;;;;5039299;28;20057;-85
2022/10/03 14:32:25;;;;;;;4.68;2.50;;;21.30;55.70;;;;;;5072355;28;20024;-90
2022/10/03 14:34:52;;;;;;;5.07;1.90;;;20.70;56.00;;;;;;5039037;28;20139;-84
2022/10/03 14:37:31;;;;;;;4.00;2.25;;;20.40;56.60;;;;;;5039463;28;20495;-88
2022/10/03 14:40:29;;;;;;;3.55;1.80;;;20.40;57.10;;;;;;5038792;28;20028;-88
2022/10/03 14:43:08;;;;;;;4.22;2.20;;;20.60;56.30;;;;;;5039571;28;20119;-85